Time;durP1;ratioP1;P1;durP2;ratioP2;P2;SDS_P1;SDS_P2;PMS_P1;PMS_P2;Temp;Humidity;BMP_temperature;BMP_pressure;BME280_temperature;BME280_humidity;BME280_pressure;Samples;Min_cycle;Max_cycle;Signal;HPM_P1;HPM_P2
2022/11/18 00:02:14;;;;;;;;;1.00;1.00;;;;;9.01;78.85;97953.97;5035572;28;8817;-57
2022/11/18 00:04:41;;;;;;;;;0.75;0.75;;;;;8.97;79.21;97949.97;5034934;28;8829;-56
2022/11/18 00:07:10;;;;;;;;;3.00;1.00;;;;;8.94;78.38;97950.31;5035334;28;8820;-57
2022/11/18 00:09:37;;;;;;;;;0.00;0.00;;;;;8.90;78.87;97959.56;5034684;28;8837;-58
2022/11/18 00:14:50;;;;;;;;;0.00;0.00;;;;;8.83;79.10;97965.69;5034322;28;8818;-57
2022/11/18 00:17:18;;;;;;;;;1.00;1.00;;;;;8.82;78.79;97972.81;5035045;28;8860;-57
2022/11/18 00:19:46;;;;;;;;;1.00;1.00;;;;;8.82;79.02;97975.47;5034761;28;8817;-58
2022/11/18 00:22:14;;;;;;;;;3.25;1.50;;;;;8.80;79.06;97972.16;5038325;28;8848;-56
2022/11/18 00:24:41;;;;;;;;;1.00;1.00;;;;;8.78;78.81;97968.84;5055006;28;8900;-56
2022/11/18 00:27:09;;;;;;;;;0.00;0.00;;;;;8.76;79.42;97970.81;5058656;28;8949;-57
2022/11/18 00:29:37;;;;;;;;;0.75;0.75;;;;;8.77;78.81;97976.94;5058513;28;8941;-56
2022/11/18 00:32:06;;;;;;;;;0.25;0.25;;;;;8.77;78.90;97968.97;5044761;28;8832;-57
2022/11/18 00:34:33;;;;;;;;;0.00;0.00;;;;;8.76;79.20;97970.81;5037901;28;8943;-56
2022/11/18 00:37:01;;;;;;;;;1.00;1.00;;;;;8.75;79.02;97970.97;5038320;28;8843;-57
2022/11/18 00:39:29;;;;;;;;;0.25;0.00;;;;;8.72;78.84;97976.56;5038629;28;8805;-57
2022/11/18 00:44:43;;;;;;;;;0.00;0.00;;;;;8.60;78.95;97983.97;5038687;28;8851;-56
2022/11/18 00:47:11;;;;;;;;;0.75;0.00;;;;;8.53;79.34;97987.44;5038803;28;8844;-57
2022/11/18 00:49:39;;;;;;;;;0.00;0.00;;;;;8.48;79.15;97985.25;5018589;28;8881;-57
2022/11/18 00:52:06;;;;;;;;;0.00;0.00;;;;;8.47;79.41;97978.28;5018718;28;8826;-55
2022/11/18 00:54:34;;;;;;;;;0.25;0.25;;;;;8.48;79.33;97984.41;5038938;28;8867;-56
2022/11/18 00:57:04;;;;;;;;;0.00;0.00;;;;;8.48;79.54;97989.72;5051861;28;8869;-57
2022/11/18 00:59:32;;;;;;;;;0.50;0.50;;;;;8.47;79.28;97993.34;5037563;28;8797;-57
2022/11/18 01:02:00;;;;;;;;;0.00;0.00;;;;;8.45;79.29;97987.38;5037376;28;8820;-56
2022/11/18 01:04:27;;;;;;;;;0.75;0.75;;;;;8.43;79.29;97989.38;5036411;28;8888;-57
2022/11/18 01:06:55;;;;;;;;;0.50;0.50;;;;;8.40;79.24;97992.31;5037499;28;9510;-57
2022/11/18 01:09:23;;;;;;;;;0.25;0.25;;;;;8.38;79.26;97991.66;5037061;28;8910;-56
2022/11/18 01:14:36;;;;;;;;;0.25;0.00;;;;;8.32;79.44;97998.41;5037504;28;8834;-57
2022/11/18 01:17:04;;;;;;;;;0.75;0.75;;;;;8.33;79.20;97997.44;5037524;28;8910;-56
2022/11/18 01:19:34;;;;;;;;;1.00;0.50;;;;;8.33;79.78;98010.69;5037686;28;8962;-57
2022/11/18 01:22:01;;;;;;;;;0.50;0.00;;;;;8.33;79.33;98001.88;5038046;28;8846;-57
2022/11/18 01:24:29;;;;;;;;;0.00;0.00;;;;;8.34;79.33;98007.03;5053088;28;8864;-57
2022/11/18 01:26:57;;;;;;;;;1.00;1.00;;;;;8.36;79.10;98006.91;5058038;28;8818;-57
2022/11/18 01:29:26;;;;;;;;;0.00;0.00;;;;;8.33;79.08;97999.22;5038220;28;8825;-58
2022/11/18 01:31:53;;;;;;;;;1.00;1.00;;;;;8.32;79.48;98000.22;5037362;28;9525;-57
2022/11/18 01:34:41;;;;;;;;;0.00;0.00;;;;;8.29;79.74;98008.50;5037033;28;8882;-57
2022/11/18 01:37:09;;;;;;;;;0.75;0.75;;;;;8.26;79.34;98008.78;5037868;28;8820;-57
2022/11/18 01:39:36;;;;;;;;;1.00;1.00;;;;;8.24;79.11;98016.06;5037226;28;8828;-58
2022/11/18 01:42:06;;;;;;;;;0.75;0.75;;;;;8.20;79.52;98023.50;5037348;28;8840;-57
2022/11/18 01:44:34;;;;;;;;;1.00;1.00;;;;;8.16;79.82;98021.28;5036414;28;9482;-57
2022/11/18 01:47:01;;;;;;;;;1.00;1.00;;;;;8.13;79.61;98025.06;5036710;28;8836;-57
2022/11/18 01:49:29;;;;;;;;;1.00;1.00;;;;;8.11;79.43;98024.41;5036433;28;8852;-58
2022/11/18 01:51:57;;;;;;;;;0.50;0.50;;;;;8.09;79.43;98026.38;5037145;28;8930;-58
2022/11/18 01:54:25;;;;;;;;;0.00;0.00;;;;;8.07;79.54;98023.03;5051577;28;8843;-57
2022/11/18 01:56:52;;;;;;;;;0.00;0.00;;;;;8.06;79.46;98021.38;5057520;28;8916;-58
2022/11/18 01:59:20;;;;;;;;;1.00;1.00;;;;;8.04;79.58;98023.34;5038061;28;8820;-57
2022/11/18 02:01:48;;;;;;;;;1.00;1.00;;;;;8.03;79.66;98021.69;5037382;28;8963;-57
2022/11/18 02:04:19;;;;;;;;;0.50;0.25;;;;;8.00;79.27;98016.69;5037159;28;8805;-57
2022/11/18 02:06:47;;;;;;;;;1.00;1.00;;;;;7.97;79.71;98024.94;5036908;28;9493;-56
2022/11/18 02:09:14;;;;;;;;;0.50;0.50;;;;;7.96;79.69;98025.94;5036615;28;8841;-57
2022/11/18 02:11:53;;;;;;;;;0.00;0.00;;;;;7.93;79.96;98036.00;5037236;28;8837;-57
2022/11/18 02:14:21;;;;;;;;;3.75;1.50;;;;;7.89;79.52;98034.63;5037052;28;8824;-57
2022/11/18 02:16:50;;;;;;;;;0.75;0.75;;;;;7.89;79.88;98037.28;5036907;28;8867;-55
2022/11/18 02:19:18;;;;;;;;;2.00;1.75;;;;;7.89;79.72;98040.78;5036238;28;8868;-56
2022/11/18 02:21:46;;;;;;;;;1.00;1.00;;;;;7.89;79.61;98045.22;5017220;28;8842;-55
2022/11/18 02:24:13;;;;;;;;;0.25;0.25;;;;;7.92;79.60;98061.66;5036257;28;8820;-56
2022/11/18 02:26:41;;;;;;;;;1.00;1.00;;;;;7.93;79.51;98047.44;5036574;28;8832;-56
2022/11/18 02:29:09;;;;;;;;;0.50;0.50;;;;;7.97;79.68;98058.56;5036917;28;9705;-55
2022/11/18 02:31:37;;;;;;;;;0.00;0.00;;;;;8.03;79.53;98057.94;5036867;28;8843;-57
2022/11/18 02:34:05;;;;;;;;;1.00;1.00;;;;;8.07;79.16;98065.44;5036312;28;8898;-56
2022/11/18 02:36:32;;;;;;;;;1.00;0.50;;;;;8.16;79.53;98082.25;5036283;28;8824;-57
2022/11/18 02:39:00;;;;;;;;;0.00;0.00;;;;;8.24;78.94;98074.41;5036341;28;8832;-57
2022/11/18 02:41:30;;;;;;;;;0.00;0.00;;;;;8.33;78.78;98078.78;5036789;28;8817;-57
2022/11/18 02:43:58;;;;;;;;;1.00;1.00;;;;;8.44;78.21;98070.59;5035380;28;8821;-57
2022/11/18 02:46:26;;;;;;;;;0.75;0.75;;;;;8.57;78.44;98071.84;5036378;28;8845;-56
2022/11/18 02:48:53;;;;;;;;;0.75;0.75;;;;;8.68;77.93;98076.06;5036124;28;8816;-57
2022/11/18 02:51:22;;;;;;;;;0.50;0.50;;;;;8.77;77.80;98068.00;5035794;28;8950;-57
2022/11/18 02:53:49;;;;;;;;;0.00;0.00;;;;;8.84;77.71;98071.69;5045604;28;8869;-56
2022/11/18 02:56:17;;;;;;;;;0.00;0.00;;;;;8.89;77.80;98074.69;5056051;28;8826;-56
2022/11/18 02:58:44;;;;;;;;;0.50;0.50;;;;;8.93;77.54;98070.75;5042353;28;8805;-56
2022/11/18 03:01:12;;;;;;;;;0.00;0.00;;;;;8.96;77.36;98070.41;5035938;28;8853;-57
2022/11/18 03:03:40;;;;;;;;;2.25;1.00;;;;;8.99;77.75;98075.44;5035707;28;8848;-57
2022/11/18 03:06:09;;;;;;;;;1.00;0.25;;;;;9.00;77.30;98069.13;5035623;28;8813;-56
2022/11/18 03:08:36;;;;;;;;;3.00;1.00;;;;;9.02;77.12;98075.09;5035308;28;8805;-56
2022/11/18 03:11:04;;;;;;;;;1.00;1.00;;;;;9.04;77.46;98078.44;5035804;28;8962;-56
2022/11/18 03:13:32;;;;;;;;;0.00;0.00;;;;;9.05;77.47;98080.09;5036014;28;8820;-57
2022/11/18 03:16:00;;;;;;;;;1.00;1.00;;;;;9.03;77.55;98083.91;5035931;28;8824;-55
2022/11/18 03:18:31;;;;;;;;;0.75;0.75;;;;;9.02;77.72;98076.91;5035995;28;8824;-55
2022/11/18 03:20:59;;;;;;;;;2.00;1.00;;;;;9.00;77.86;98084.22;5036122;28;8899;-55
2022/11/18 03:23:26;;;;;;;;;0.00;0.00;;;;;8.97;78.03;98080.03;5041006;28;8850;-57
2022/11/18 03:25:54;;;;;;;;;0.25;0.25;;;;;8.95;78.07;98079.38;5042387;28;8916;-56
2022/11/18 03:28:22;;;;;;;;;1.00;1.00;;;;;8.93;78.21;98080.53;5034845;28;8821;-56
2022/11/18 03:30:51;;;;;;;;;1.00;1.00;;;;;8.90;77.87;98092.28;5035743;28;8821;-55
2022/11/18 03:33:18;;;;;;;;;1.00;1.00;;;;;8.89;78.40;98095.94;5035052;28;8902;-57
2022/11/18 03:35:46;;;;;;;;;1.00;1.00;;;;;8.87;78.16;98094.41;5036073;28;8913;-56
2022/11/18 03:38:14;;;;;;;;;1.00;1.00;;;;;8.85;77.75;98099.91;5035772;28;8816;-56
2022/11/18 03:40:42;;;;;;;;;1.00;1.00;;;;;8.85;78.32;98091.94;5035906;28;8855;-56
2022/11/18 03:43:09;;;;;;;;;0.50;0.50;;;;;8.85;78.39;98099.06;5035744;28;9287;-54
2022/11/18 03:45:37;;;;;;;;;0.25;0.25;;;;;8.82;78.32;98102.84;5035630;28;8932;-57
2022/11/18 03:48:05;;;;;;;;;1.00;1.00;;;;;8.81;78.31;98105.69;5034737;28;9490;-57
2022/11/18 03:50:32;;;;;;;;;0.75;0.75;;;;;8.81;78.28;98113.63;5034971;28;8821;-57
2022/11/18 03:53:00;;;;;;;;;0.50;0.50;;;;;8.80;78.15;98110.13;5038506;28;8865;-57
2022/11/18 03:55:29;;;;;;;;;1.00;1.00;;;;;8.78;78.33;98117.44;5049674;28;8813;-56
2022/11/18 03:57:57;;;;;;;;;3.00;2.00;;;;;8.78;78.38;98114.78;5039053;28;8910;-57
2022/11/18 04:00:24;;;;;;;;;3.25;3.25;;;;;8.79;78.34;98121.75;5038529;28;8817;-57
2022/11/18 04:02:53;;;;;;;;;2.50;2.50;;;;;8.80;78.14;98118.09;5039212;28;9553;-57
2022/11/18 04:05:20;;;;;;;;;4.00;4.00;;;;;8.85;78.19;98115.81;5039366;28;8828;-57
2022/11/18 04:07:51;;;;;;;;;3.75;3.75;;;;;8.89;78.19;98119.00;5039252;28;8869;-57
2022/11/18 04:10:18;;;;;;;;;1.00;1.00;;;;;8.90;78.27;98118.00;5038438;28;8825;-57
2022/11/18 04:12:46;;;;;;;;;3.00;3.00;;;;;8.92;78.57;98122.16;5038634;28;8903;-57
2022/11/18 04:15:13;;;;;;;;;3.00;1.00;;;;;8.90;78.62;98120.66;5038982;28;8815;-57
2022/11/18 04:17:41;;;;;;;;;4.50;2.50;;;;;8.88;78.59;98115.50;5039055;28;8860;-57
2022/11/18 04:20:08;;;;;;;;;5.00;3.50;;;;;8.88;78.75;98130.59;5039367;28;8922;-57
2022/11/18 04:22:36;;;;;;;;;3.00;2.00;;;;;8.88;78.23;98134.06;5039066;28;8832;-57
2022/11/18 04:25:04;;;;;;;;;3.75;3.50;;;;;8.90;78.15;98139.25;5039257;28;8837;-57
2022/11/18 04:27:31;;;;;;;;;3.00;3.00;;;;;8.90;78.17;98140.06;5038923;28;8840;-57
2022/11/18 04:29:59;;;;;;;;;3.00;3.00;;;;;8.90;78.28;98142.72;5038596;28;9495;-57
2022/11/18 04:32:27;;;;;;;;;4.00;3.50;;;;;8.90;78.22;98142.72;5038712;28;8853;-57
2022/11/18 04:34:54;;;;;;;;;3.25;3.25;;;;;8.90;78.59;98134.75;5038384;28;8936;-57
2022/11/18 04:37:22;;;;;;;;;1.00;1.00;;;;;8.93;78.26;98142.41;5038735;28;8836;-57
2022/11/18 04:39:50;;;;;;;;;3.50;3.00;;;;;8.94;78.22;98141.41;5038139;28;8828;-57
2022/11/18 04:42:18;;;;;;;;;5.00;4.75;;;;;8.96;78.57;98144.75;5039109;28;8868;-56
2022/11/18 04:44:48;;;;;;;;;3.75;3.75;;;;;8.97;78.37;98145.59;5037562;28;8809;-57
2022/11/18 04:47:16;;;;;;;;;1.00;1.00;;;;;8.98;78.19;98147.25;5038483;28;8813;-57
2022/11/18 04:49:44;;;;;;;;;3.25;3.25;;;;;8.97;78.44;98151.72;5037682;28;8839;-57
2022/11/18 04:52:11;;;;;;;;;3.00;2.00;;;;;8.99;78.26;98151.56;5037914;28;8868;-57
2022/11/18 04:54:39;;;;;;;;;3.50;3.50;;;;;9.00;78.06;98159.38;5054005;28;8830;-57
2022/11/18 04:57:07;;;;;;;;;2.00;2.00;;;;;8.99;78.44;98156.88;5057646;28;8854;-57
2022/11/18 04:59:34;;;;;;;;;3.00;3.00;;;;;8.98;78.34;98166.66;5039858;28;8820;-57
2022/11/18 05:02:02;;;;;;;;;3.75;3.75;;;;;8.95;78.70;98164.31;5037521;28;8898;-57
2022/11/18 05:04:30;;;;;;;;;3.75;3.50;;;;;8.94;78.57;98167.97;5037157;28;8890;-57
2022/11/18 05:06:58;;;;;;;;;3.75;3.75;;;;;8.97;78.13;98166.81;5037012;28;8824;-57
2022/11/18 05:09:34;;;;;;;;;4.00;4.00;;;;;8.98;78.33;98174.63;5037614;28;8843;-57
2022/11/18 05:14:47;;;;;;;;;5.50;5.00;;;;;9.01;78.18;98190.25;5037514;28;8829;-57
2022/11/18 05:17:17;;;;;;;;;4.50;4.00;;;;;9.02;78.17;98180.44;5037640;28;8805;-57
2022/11/18 05:19:44;;;;;;;;;2.00;2.00;;;;;9.04;78.65;98184.63;5037419;28;8835;-57
2022/11/18 05:22:12;;;;;;;;;3.00;3.00;;;;;9.05;78.70;98194.25;5038281;28;9510;-57
2022/11/18 05:24:40;;;;;;;;;2.50;1.00;;;;;9.08;77.77;98191.28;5037745;28;8833;-57
2022/11/18 05:27:07;;;;;;;;;1.00;1.00;;;;;9.09;78.52;98192.97;5037990;28;9551;-57
2022/11/18 05:29:35;;;;;;;;;0.00;0.00;;;;;9.11;78.00;98190.97;5037743;28;8816;-55
2022/11/18 05:32:04;;;;;;;;;2.50;1.50;;;;;9.13;78.23;98198.78;5037777;28;8853;-57
2022/11/18 05:34:32;;;;;;;;;1.00;1.00;;;;;9.13;78.41;98198.78;5036461;28;8852;-56
2022/11/18 05:36:59;;;;;;;;;0.00;0.00;;;;;9.13;78.30;98204.09;5036372;28;8835;-55
2022/11/18 05:39:27;;;;;;;;;0.00;0.00;;;;;9.12;78.32;98199.78;5036393;28;8898;-57
2022/11/18 05:44:40;;;;;;;;;0.00;0.00;;;;;9.03;79.02;98214.81;5036355;28;8805;-56
2022/11/18 05:47:10;;;;;;;;;0.00;0.00;;;;;8.98;78.60;98209.13;5032685;28;8833;-57
2022/11/18 05:49:37;;;;;;;;;0.00;0.00;;;;;8.94;78.93;98210.44;5036852;28;9558;-57
2022/11/18 05:52:06;;;;;;;;;0.00;0.00;;;;;8.90;79.23;98219.69;5036559;28;8868;-57
2022/11/18 05:54:34;;;;;;;;;1.00;1.00;;;;;8.88;79.72;98221.66;5037086;28;8852;-57
2022/11/18 05:57:03;;;;;;;;;1.00;1.00;;;;;8.87;79.33;98222.66;5036748;28;8861;-56
2022/11/18 05:59:31;;;;;;;;;0.00;0.00;;;;;8.86;79.25;98218.34;5036492;28;8813;-57
2022/11/18 06:02:02;;;;;;;;;0.75;0.00;;;;;8.85;79.74;98221.13;5036866;28;8883;-57
2022/11/18 06:04:30;;;;;;;;;0.00;0.00;;;;;8.84;79.98;98230.94;5036832;28;8820;-57
2022/11/18 06:06:58;;;;;;;;;0.00;0.00;;;;;8.83;79.48;98226.59;5036322;28;8848;-57
2022/11/18 06:09:30;;;;;;;;;1.00;0.25;;;;;8.83;80.07;98226.59;5035028;28;8899;-57
2022/11/18 06:12:01;;;;;;;;;1.00;0.00;;;;;8.84;80.10;98230.94;5035394;28;8837;-56
2022/11/18 06:14:29;;;;;;;;;0.00;0.00;;;;;8.85;80.68;98231.75;5033992;28;8841;-56
2022/11/18 06:16:57;;;;;;;;;0.00;0.00;;;;;8.83;80.33;98234.53;5034887;28;8844;-55
2022/11/18 06:19:28;;;;;;;;;0.00;0.00;;;;;8.83;80.47;98239.84;5034296;28;8845;-56
2022/11/18 06:21:59;;;;;;;;;0.00;0.00;;;;;8.85;80.22;98258.28;5034705;28;9507;-55
2022/11/18 06:24:27;;;;;;;;;0.00;0.00;;;;;8.85;80.52;98253.81;5050414;28;8947;-57
2022/11/18 06:26:55;;;;;;;;;0.50;0.50;;;;;8.87;80.72;98258.97;5055289;28;8834;-56
2022/11/18 06:29:24;;;;;;;;;1.00;1.00;;;;;8.90;80.06;98262.16;5054940;28;8877;-57
2022/11/18 06:31:55;;;;;;;;;0.00;0.00;;;;;8.93;80.06;98261.84;5044838;28;8832;-56
2022/11/18 06:34:27;;;;;;;;;0.00;0.00;;;;;8.97;80.13;98273.00;5033969;28;8813;-57
2022/11/18 06:36:55;;;;;;;;;0.50;0.50;;;;;8.99;80.00;98273.69;5033973;28;8892;-56
2022/11/18 06:39:28;;;;;;;;;2.50;2.00;;;;;9.03;79.62;98275.88;5034144;28;8963;-55
2022/11/18 06:41:56;;;;;;;;;3.00;2.00;;;;;9.05;79.50;98276.53;5033678;28;8878;-56
2022/11/18 06:44:23;;;;;;;;;0.75;0.75;;;;;9.06;79.58;98278.25;5034308;28;8847;-56
2022/11/18 06:46:57;;;;;;;;;0.50;0.50;;;;;9.07;79.63;98274.59;5035330;28;8845;-56
2022/11/18 06:49:25;;;;;;;;;3.00;3.00;;;;;9.07;79.59;98282.56;5034646;28;8839;-56
2022/11/18 06:52:20;;;;;;;;;1.75;1.75;;;;;9.10;79.79;98284.03;5130396;27;13457;-56
2022/11/18 06:54:47;;;;;;;;;3.00;1.00;;;;;9.14;79.68;98286.28;5112499;28;8804;-56
2022/11/18 06:57:18;;;;;;;;;1.00;1.00;;;;;9.19;79.59;98289.28;5111804;28;9615;-56
2022/11/18 06:59:53;;;;;;;;;0.00;0.00;;;;;9.21;79.30;98292.63;5072704;28;8893;-55
2022/11/18 07:02:28;;;;;;;;;1.00;1.00;;;;;9.21;79.42;98295.28;5093826;28;8830;-56
2022/11/18 07:04:57;;;;;;;;;0.50;0.50;;;;;9.19;79.48;98301.75;5110952;28;8844;-55
2022/11/18 07:07:26;;;;;;;;;3.00;3.00;;;;;9.16;79.30;98310.84;5110989;28;8828;-56
2022/11/18 07:09:56;;;;;;;;;0.50;0.50;;;;;9.14;79.42;98309.31;5112274;28;9492;-57
2022/11/18 07:12:24;;;;;;;;;1.00;1.00;;;;;9.12;79.22;98316.63;5112436;28;8863;-56
2022/11/18 07:14:55;;;;;;;;;2.00;1.00;;;;;9.13;79.92;98323.59;5112178;28;8845;-55
2022/11/18 07:17:23;;;;;;;;;5.75;5.25;;;;;9.13;79.61;98321.75;5112392;28;8956;-56
2022/11/18 07:19:51;;;;;;;;;1.00;1.00;;;;;9.15;79.62;98332.22;5111831;28;8837;-57
2022/11/18 07:22:20;;;;;;;;;1.00;1.00;;;;;9.16;79.79;98321.47;5112002;28;8826;-56
2022/11/18 07:24:48;;;;;;;;;1.00;1.00;;;;;9.17;79.37;98333.75;5130595;27;8902;-56
2022/11/18 07:27:17;;;;;;;;;3.50;3.00;;;;;9.17;79.74;98336.41;5118047;28;8811;-56
2022/11/18 07:29:45;;;;;;;;;2.50;2.50;;;;;9.17;79.76;98333.75;5111114;28;8828;-57
2022/11/18 07:32:13;;;;;;;;;1.00;1.00;;;;;9.17;79.37;98347.03;5111051;28;9577;-56
2022/11/18 07:34:43;;;;;;;;;1.00;1.00;;;;;9.15;79.14;98343.69;5111416;28;8828;-56
2022/11/18 07:37:11;;;;;;;;;3.50;2.50;;;;;9.14;79.52;98343.84;5111371;28;8842;-56
2022/11/18 07:39:39;;;;;;;;;2.50;1.50;;;;;9.12;79.12;98341.31;5111464;28;8848;-57
2022/11/18 07:42:07;;;;;;;;;1.50;1.00;;;;;9.11;79.52;98349.47;5111487;28;9481;-56
2022/11/18 07:44:36;;;;;;;;;3.75;3.75;;;;;9.10;79.96;98367.22;5111616;28;8843;-56
2022/11/18 07:47:05;;;;;;;;;1.00;1.00;;;;;9.09;79.47;98362.88;5111518;28;9633;-56
2022/11/18 07:49:33;;;;;;;;;3.00;3.00;;;;;9.10;79.95;98375.16;5110598;28;8860;-56
2022/11/18 07:52:01;;;;;;;;;1.00;1.00;;;;;9.12;79.64;98372.38;5110127;28;8993;-57
2022/11/18 07:54:29;;;;;;;;;3.00;3.00;;;;;9.12;79.61;98367.88;5119640;28;8860;-57
2022/11/18 07:56:56;;;;;;;;;3.00;3.00;;;;;9.17;79.58;98380.69;5109202;28;9133;-57
2022/11/18 07:59:25;;;;;;;;;3.00;3.00;;;;;9.19;79.61;98384.88;5110272;28;8840;-57
2022/11/18 08:01:53;;;;;;;;;1.50;1.50;;;;;9.23;79.52;98382.75;5106576;28;8849;-57
2022/11/18 08:04:23;;;;;;;;;3.00;3.00;;;;;9.25;79.19;98386.94;5095745;28;8826;-57
2022/11/18 08:06:51;;;;;;;;;1.00;1.00;;;;;9.27;79.31;98390.25;5096307;28;8842;-56
2022/11/18 08:09:19;;;;;;;;;2.00;2.00;;;;;9.32;79.37;98395.97;5095465;28;8924;-56
2022/11/18 08:11:47;;;;;;;;;4.00;3.00;;;;;9.35;79.22;98390.34;5095590;28;8846;-56
2022/11/18 08:14:15;;;;;;;;;2.50;2.50;;;;;9.42;79.03;98402.03;5096559;28;8829;-57
2022/11/18 08:16:43;;;;;;;;;3.50;3.50;;;;;9.48;79.34;98400.59;5096472;28;8926;-56
2022/11/18 08:19:11;;;;;;;;;3.00;3.00;;;;;9.53;78.73;98403.63;5096148;28;8811;-57
2022/11/18 08:21:39;;;;;;;;;3.00;3.00;;;;;9.58;79.24;98414.63;5096864;28;8862;-56
2022/11/18 08:24:08;;;;;;;;;3.25;3.00;;;;;9.61;78.75;98415.16;5109079;28;8854;-57
2022/11/18 08:26:35;;;;;;;;;2.00;2.00;;;;;9.66;78.22;98414.69;5116013;28;8843;-55
2022/11/18 08:29:05;;;;;;;;;3.75;3.25;;;;;9.71;78.50;98420.41;5115279;28;8827;-55
2022/11/18 08:31:33;;;;;;;;;2.00;2.00;;;;;9.74;78.13;98417.41;5096520;28;9769;-57
2022/11/18 08:34:01;;;;;;;;;2.00;2.00;;;;;9.76;78.29;98415.44;5095562;28;8840;-57
2022/11/18 08:36:29;;;;;;;;;3.00;3.00;;;;;9.79;78.67;98418.63;5095522;28;8810;-56
2022/11/18 08:38:58;;;;;;;;;3.00;2.50;;;;;9.83;78.09;98422.66;5095165;28;8818;-56
2022/11/18 08:41:25;;;;;;;;;3.00;3.00;;;;;9.86;78.24;98422.31;5075332;28;8843;-57
2022/11/18 08:43:54;;;;;;;;;3.00;3.00;;;;;9.91;78.84;98428.03;5091435;28;8818;-56
2022/11/18 08:46:21;;;;;;;;;3.00;3.00;;;;;9.96;77.90;98422.25;5095170;28;8879;-57
2022/11/18 08:48:50;;;;;;;;;3.75;3.50;;;;;10.00;77.80;98423.56;5095922;28;8826;-56
2022/11/18 08:51:18;;;;;;;;;6.00;4.50;;;;;10.05;78.25;98426.66;5095977;28;8862;-57
2022/11/18 08:53:46;;;;;;;;;5.00;5.00;;;;;10.10;77.99;98435.81;5104314;28;8820;-57
2022/11/18 08:56:14;;;;;;;;;6.25;6.00;;;;;10.14;77.53;98431.03;5097239;28;8834;-57
2022/11/18 08:58:42;;;;;;;;;6.00;6.00;;;;;10.18;78.06;98437.72;5094212;28;8830;-57
2022/11/18 09:01:10;;;;;;;;;3.50;3.50;;;;;10.23;77.68;98443.41;5094731;28;8818;-57
2022/11/18 09:03:38;;;;;;;;;4.00;4.00;;;;;10.25;77.72;98436.91;5094312;28;8825;-57
2022/11/18 09:06:08;;;;;;;;;6.00;2.00;;;;;10.27;77.62;98442.94;5093847;28;8848;-56
2022/11/18 09:08:36;;;;;;;;;6.50;4.00;;;;;10.29;77.76;98437.44;5093554;28;8887;-56
2022/11/18 09:11:03;;;;;;;;;4.50;4.00;;;;;10.29;77.61;98440.94;5094809;28;8814;-57
2022/11/18 09:13:32;;;;;;;;;4.67;4.00;;;;;10.30;77.62;98442.63;5094288;28;9602;-56
2022/11/18 09:16:22;;;;;;;;;4.50;3.25;;;;;10.30;77.46;98453.25;5093222;28;8891;-56
2022/11/18 09:19:10;;;;;;;;;6.00;4.50;;;;;10.33;77.77;98450.28;5094800;28;9001;-57
2022/11/18 09:21:57;;;;;;;;;4.00;3.50;;;;;10.36;77.97;98447.31;5095350;28;8849;-57
2022/11/18 09:24:26;;;;;;;;;4.50;3.75;;;;;10.39;77.22;98449.66;5109254;28;8842;-57
2022/11/18 09:26:54;;;;;;;;;3.25;3.00;;;;;10.43;77.79;98452.81;5113952;28;8820;-57
2022/11/18 09:29:24;;;;;;;;;6.00;6.00;;;;;10.46;77.86;98464.00;5094543;28;8907;-57
2022/11/18 09:31:53;;;;;;;;;5.00;3.50;;;;;10.50;77.42;98465.38;5095180;28;8842;-57
2022/11/18 09:34:20;;;;;;;;;0.00;0.00;;;;;10.53;77.33;98459.72;5094262;28;8818;-58
2022/11/18 09:36:48;;;;;;;;;4.00;3.00;;;;;10.56;77.27;98470.03;5094335;28;8826;-57
2022/11/18 09:39:17;;;;;;;;;6.25;6.00;;;;;10.58;77.63;98464.56;5095143;28;8814;-57
2022/11/18 09:41:45;;;;;;;;;6.00;4.00;;;;;10.60;77.60;98475.88;5095672;28;9549;-56
2022/11/18 09:44:14;;;;;;;;;6.00;5.50;;;;;10.61;77.66;98475.72;5095436;28;8814;-56
2022/11/18 09:46:42;;;;;;;;;4.50;4.00;;;;;10.65;77.08;98469.09;5095495;28;8825;-57
2022/11/18 09:49:13;;;;;;;;;3.00;3.00;;;;;10.70;77.21;98472.09;5094463;28;8968;-56
2022/11/18 09:51:44;;;;;;;;;6.00;6.00;;;;;10.77;76.80;98481.13;5093556;28;8877;-57
2022/11/18 09:54:12;;;;;;;;;5.00;5.00;;;;;10.83;76.93;98477.84;5097142;28;9572;-57
2022/11/18 09:56:40;;;;;;;;;6.50;6.50;;;;;10.91;77.22;98477.06;5093157;28;8821;-57
2022/11/18 09:59:08;;;;;;;;;6.00;6.00;;;;;10.96;76.47;98483.56;5092497;28;8833;-56
2022/11/18 10:01:36;;;;;;;;;6.50;6.00;;;;;11.03;76.75;98489.91;5093503;28;8814;-57
2022/11/18 10:04:06;;;;;;;;;5.00;5.00;;;;;11.07;76.57;98485.91;5092645;28;8842;-57
2022/11/18 10:06:34;;;;;;;;;7.00;6.25;;;;;11.11;76.88;98500.59;5093589;28;8811;-57
2022/11/18 10:09:02;;;;;;;;;5.50;4.00;;;;;11.12;76.38;98498.75;5094124;28;8810;-57
2022/11/18 10:11:30;;;;;;;;;6.00;6.00;;;;;11.14;76.97;98497.59;5093803;28;8850;-56
2022/11/18 10:13:58;;;;;;;;;5.50;5.00;;;;;11.15;76.32;98496.59;5093408;28;8826;-57
2022/11/18 10:16:26;;;;;;;;;6.00;6.00;;;;;11.16;76.50;98505.44;5093308;28;8861;-56
2022/11/18 10:18:54;;;;;;;;;5.00;5.00;;;;;11.17;76.61;98507.97;5093086;28;8864;-57
2022/11/18 10:21:29;;;;;;;;;3.75;3.00;;;;;11.17;76.70;98513.28;5092932;28;8845;-57
2022/11/18 10:23:57;;;;;;;;;6.00;6.00;;;;;11.20;76.28;98514.78;5104362;28;8832;-57
2022/11/18 10:26:25;;;;;;;;;5.00;5.00;;;;;11.23;76.67;98512.63;5114390;28;8866;-58
2022/11/18 10:28:57;;;;;;;;;7.00;5.00;;;;;11.28;76.66;98520.13;5114456;28;8830;-57
2022/11/18 10:31:26;;;;;;;;;5.50;5.00;;;;;11.30;76.27;98518.16;5114096;28;8843;-57
2022/11/18 10:33:53;;;;;;;;;5.50;5.00;;;;;11.28;76.89;98515.66;5104106;28;8838;-57
2022/11/18 10:36:21;;;;;;;;;5.00;5.00;;;;;11.24;76.44;98518.78;5093401;28;8922;-57
2022/11/18 10:38:49;;;;;;;;;5.00;4.00;;;;;11.21;76.46;98519.94;5092520;28;8985;-57
2022/11/18 10:41:17;;;;;;;;;4.00;4.00;;;;;11.18;76.99;98524.75;5091065;28;8877;-57
2022/11/18 10:43:46;;;;;;;;;7.00;5.50;;;;;11.13;76.62;98522.59;5091027;28;8854;-57
2022/11/18 10:46:14;;;;;;;;;4.50;4.50;;;;;11.11;77.21;98524.56;5091462;28;8908;-56
2022/11/18 10:48:42;;;;;;;;;6.00;5.00;;;;;11.10;76.68;98528.25;5091913;28;8838;-57
2022/11/18 10:51:10;;;;;;;;;3.50;3.50;;;;;11.15;77.03;98530.44;5092192;28;8883;-57
2022/11/18 10:53:38;;;;;;;;;6.50;6.00;;;;;11.17;77.05;98528.44;5100510;28;8954;-57
2022/11/18 10:56:06;;;;;;;;;6.75;6.50;;;;;11.19;76.90;98527.28;5113506;28;8836;-58
2022/11/18 10:58:34;;;;;;;;;6.00;5.00;;;;;11.24;76.54;98529.47;5110987;28;9485;-57
2022/11/18 11:01:02;;;;;;;;;7.00;6.25;;;;;11.28;76.93;98518.31;5092849;28;9757;-56
2022/11/18 11:03:30;;;;;;;;;3.25;3.00;;;;;11.34;76.35;98532.81;5093773;28;8840;-55
2022/11/18 11:05:59;;;;;;;;;5.00;4.50;;;;;11.36;76.30;98522.84;5092067;28;9128;-57
2022/11/18 11:08:27;;;;;;;;;10.00;8.00;;;;;11.37;76.90;98530.66;5092185;28;8825;-57
2022/11/18 11:11:04;;;;;;;;;6.25;5.00;;;;;11.42;76.51;98528.34;5093481;28;8926;-56
2022/11/18 11:13:33;;;;;;;;;4.00;4.00;;;;;11.49;76.28;98521.38;5091565;28;8859;-57
2022/11/18 11:16:03;;;;;;;;;9.50;7.75;;;;;11.60;76.45;98526.44;5091632;28;8842;-57
2022/11/18 11:18:43;;;;;;;;;8.50;6.50;;;;;11.68;75.89;98526.44;5090448;28;8818;-55
2022/11/18 11:21:11;;;;;;;;;2.75;2.75;;;;;11.70;76.36;98524.47;5091764;28;8869;-57
2022/11/18 11:23:39;;;;;;;;;7.50;6.50;;;;;11.68;76.06;98530.97;5100878;28;8854;-57
2022/11/18 11:26:09;;;;;;;;;7.00;6.25;;;;;11.60;76.46;98526.44;5113212;28;8844;-57
2022/11/18 11:28:57;;;;;;;;;6.75;6.00;;;;;11.58;76.06;98531.09;5112520;28;8852;-57
2022/11/18 11:31:25;;;;;;;;;7.75;7.25;;;;;11.60;75.89;98536.28;5112779;28;8828;-57
2022/11/18 11:33:53;;;;;;;;;9.00;9.00;;;;;11.61;76.47;98533.44;5110542;28;8970;-58
2022/11/18 11:36:21;;;;;;;;;9.25;7.00;;;;;11.59;76.63;98524.75;5072283;28;8929;-57
2022/11/18 11:38:49;;;;;;;;;6.25;6.00;;;;;11.57;76.27;98531.22;5075322;28;8839;-56
2022/11/18 11:41:17;;;;;;;;;8.00;8.00;;;;;11.56;76.33;98538.41;5075343;28;8840;-57
2022/11/18 11:43:45;;;;;;;;;7.00;6.00;;;;;11.61;76.39;98535.28;5084516;28;8890;-57
2022/11/18 11:46:13;;;;;;;;;6.00;5.00;;;;;11.65;76.22;98539.25;5095969;28;8849;-57
2022/11/18 11:48:41;;;;;;;;;8.50;8.50;;;;;11.70;76.41;98535.13;5096056;28;8860;-57
2022/11/18 11:51:09;;;;;;;;;6.75;6.00;;;;;11.83;75.78;98542.66;5094956;28;8837;-55
2022/11/18 11:53:36;;;;;;;;;10.50;10.25;;;;;11.98;75.28;98546.34;5103461;28;8838;-57
2022/11/18 11:56:04;;;;;;;;;4.00;4.00;;;;;12.09;75.41;98545.00;5115718;28;9520;-57
2022/11/18 11:58:33;;;;;;;;;7.00;7.00;;;;;12.24;75.32;98542.53;5114011;28;8839;-57
2022/11/18 12:01:00;;;;;;;;;6.00;6.00;;;;;12.35;75.40;98544.84;5094234;28;8822;-55
2022/11/18 12:03:28;;;;;;;;;7.00;7.00;;;;;12.43;75.25;98547.50;5093276;28;9710;-56
2022/11/18 12:05:56;;;;;;;;;9.75;8.50;;;;;12.48;74.83;98539.84;5092860;28;8866;-58
2022/11/18 12:08:24;;;;;;;;;6.75;6.75;;;;;12.51;74.90;98545.69;5094049;28;8849;-56
2022/11/18 12:10:53;;;;;;;;;5.00;5.00;;;;;12.48;74.73;98545.19;5094338;28;8818;-57